createdAt,value
2023-04-26T00:00:42.026Z,0.98
2023-04-26T00:01:42.047Z,0.98
2023-04-26T00:02:42.135Z,0.96
2023-04-26T00:03:42.148Z,0.94
2023-04-26T00:04:42.208Z,1.04
2023-04-26T00:05:41.992Z,1.10
2023-04-26T00:06:41.960Z,1.07
2023-04-26T00:07:41.979Z,1.06
2023-04-26T00:08:41.946Z,1.03
2023-04-26T00:09:41.918Z,0.98
2023-04-26T00:10:41.934Z,0.96
2023-04-26T00:11:41.935Z,1.00
2023-04-26T00:12:41.973Z,0.98
2023-04-26T00:13:41.878Z,0.98
2023-04-26T00:14:41.920Z,0.96
2023-04-26T00:15:41.864Z,1.00
2023-04-26T00:16:42.014Z,1.01
2023-04-26T00:17:41.900Z,1.03
2023-04-26T00:18:41.876Z,1.00
2023-04-26T00:19:41.833Z,1.03
2023-04-26T00:20:41.885Z,1.01
2023-04-26T00:21:41.817Z,1.00
2023-04-26T00:22:41.925Z,0.98
2023-04-26T00:23:41.793Z,1.01
2023-04-26T00:24:41.863Z,1.01
2023-04-26T00:25:41.787Z,1.00
2023-04-26T00:26:41.763Z,0.97
2023-04-26T00:27:41.762Z,0.92
2023-04-26T00:28:41.776Z,0.92
2023-04-26T00:29:41.776Z,0.88
2023-04-26T00:30:41.720Z,0.88
2023-04-26T00:31:41.754Z,0.88
2023-04-26T00:32:41.773Z,0.88
2023-04-26T00:33:41.717Z,0.85
2023-04-26T00:34:43.228Z,0.85
2023-04-26T00:35:41.708Z,0.88
2023-04-26T00:36:41.668Z,0.90
2023-04-26T00:37:41.675Z,0.86
2023-04-26T00:38:41.684Z,0.88
2023-04-26T00:39:41.629Z,0.90
2023-04-26T00:40:41.615Z,0.89
2023-04-26T00:41:41.630Z,0.90
2023-04-26T00:42:41.604Z,0.89
2023-04-26T00:43:41.674Z,0.89
2023-04-26T00:44:41.619Z,0.89
2023-04-26T00:45:41.609Z,0.85
2023-04-26T00:46:41.562Z,0.83
2023-04-26T00:47:41.578Z,0.79
2023-04-26T00:48:41.589Z,0.79
2023-04-26T00:49:41.550Z,0.78
2023-04-26T00:50:41.531Z,0.79
2023-04-26T00:51:41.508Z,0.75
2023-04-26T00:52:41.504Z,0.75
2023-04-26T00:53:41.523Z,0.72
2023-04-26T00:54:41.524Z,0.76
2023-04-26T00:55:41.593Z,0.79
2023-04-26T00:56:41.482Z,0.80
2023-04-26T00:57:41.449Z,0.82
2023-04-26T00:58:41.503Z,0.82
2023-04-26T00:59:41.465Z,0.83
2023-04-26T01:00:41.436Z,0.92
2023-04-26T01:01:41.482Z,1.06
2023-04-26T01:02:41.597Z,1.15
2023-04-26T01:03:41.545Z,1.21
2023-04-26T01:04:41.373Z,1.19
2023-04-26T01:05:41.428Z,1.21
2023-04-26T01:06:41.375Z,1.21
2023-04-26T01:07:41.355Z,1.22
2023-04-26T01:08:41.364Z,1.33
2023-04-26T01:09:41.334Z,1.36
2023-04-26T01:10:41.326Z,1.36
2023-04-26T01:11:41.310Z,1.33
2023-04-26T01:12:41.303Z,1.28
2023-04-26T01:13:41.320Z,1.36
2023-04-26T01:14:41.313Z,1.26
2023-04-26T01:15:41.280Z,1.24
2023-04-26T01:16:41.364Z,1.37
2023-04-26T01:17:41.323Z,1.47
2023-04-26T01:18:41.267Z,1.54
2023-04-26T01:19:41.263Z,1.55
2023-04-26T01:20:41.262Z,1.51
2023-04-26T01:21:41.205Z,1.51
2023-04-26T01:22:41.327Z,1.46
2023-04-26T01:23:41.220Z,1.43
2023-04-26T01:24:41.224Z,1.40
2023-04-26T01:25:41.199Z,1.46
2023-04-26T01:26:41.177Z,1.44
2023-04-26T01:27:41.149Z,1.39
2023-04-26T01:28:41.290Z,1.36
2023-04-26T01:29:41.224Z,1.29
2023-04-26T01:30:41.184Z,1.32
2023-04-26T01:31:41.217Z,1.29
2023-04-26T01:32:41.217Z,1.29
2023-04-26T01:33:41.144Z,1.25
2023-04-26T01:34:41.146Z,1.19
2023-04-26T01:35:41.166Z,1.15
2023-04-26T01:36:41.181Z,1.14
2023-04-26T01:37:41.074Z,1.15
2023-04-26T01:38:41.150Z,1.10
2023-04-26T01:39:41.035Z,1.08
2023-04-26T01:40:40.994Z,1.07
2023-04-26T01:41:40.992Z,1.03
2023-04-26T01:42:40.987Z,0.98
2023-04-26T01:43:41.043Z,1.00
2023-04-26T01:44:40.986Z,0.97
2023-04-26T01:45:40.956Z,1.01
2023-04-26T01:46:40.958Z,1.06
2023-04-26T01:47:41.007Z,1.08
2023-04-26T01:48:40.959Z,1.07
2023-04-26T01:49:40.933Z,1.15
2023-04-26T01:50:40.916Z,1.15
2023-04-26T01:51:40.914Z,1.15
2023-04-26T01:52:40.887Z,1.10
2023-04-26T01:53:40.926Z,1.14
2023-04-26T01:54:40.901Z,1.12
2023-04-26T01:55:40.856Z,1.06
2023-04-26T01:56:40.856Z,1.04
2023-04-26T01:57:40.852Z,1.06
2023-04-26T01:58:40.850Z,1.06
2023-04-26T01:59:40.832Z,1.10
2023-04-26T02:00:40.806Z,1.15
2023-04-26T02:01:40.857Z,1.14
2023-04-26T02:02:40.893Z,1.08
2023-04-26T02:03:40.889Z,1.14
2023-04-26T02:04:40.778Z,1.12
2023-04-26T02:05:40.763Z,1.08
2023-04-26T02:06:40.745Z,1.07
2023-04-26T02:07:40.790Z,1.07
2023-04-26T02:08:40.727Z,1.06
2023-04-26T02:09:40.746Z,1.00
2023-04-26T02:10:40.716Z,0.96
2023-04-26T02:11:40.725Z,0.92
2023-04-26T02:12:40.704Z,0.92
2023-04-26T02:13:40.680Z,0.92
2023-04-26T02:14:40.713Z,0.94
2023-04-26T02:15:40.747Z,0.94
2023-04-26T02:16:40.694Z,0.96
2023-04-26T02:17:40.676Z,0.92
2023-04-26T02:18:40.684Z,0.97
2023-04-26T02:19:40.700Z,1.00
2023-04-26T02:20:40.629Z,1.07
2023-04-26T02:21:40.599Z,1.14
2023-04-26T02:22:40.603Z,1.07
2023-04-26T02:23:40.660Z,1.08
2023-04-26T02:24:40.621Z,1.06
2023-04-26T02:25:40.578Z,1.08
2023-04-26T02:26:40.567Z,1.08
2023-04-26T02:27:40.582Z,1.06
2023-04-26T02:28:40.536Z,1.06
2023-04-26T02:29:44.134Z,1.03
2023-04-26T02:30:40.516Z,0.97
2023-04-26T02:31:40.541Z,0.98
2023-04-26T02:32:40.501Z,1.03
2023-04-26T02:33:40.492Z,1.00
2023-04-26T02:34:40.505Z,0.96
2023-04-26T02:35:40.459Z,0.94
2023-04-26T02:36:40.464Z,0.89
2023-04-26T02:37:40.454Z,0.86
2023-04-26T02:38:40.469Z,0.82
2023-04-26T02:39:40.464Z,0.88
2023-04-26T02:40:40.430Z,0.86
2023-04-26T02:41:40.462Z,0.85
2023-04-26T02:42:40.387Z,0.90
2023-04-26T02:43:40.377Z,0.97
2023-04-26T02:44:40.412Z,0.94
2023-04-26T02:45:40.367Z,0.94
2023-04-26T02:46:40.378Z,0.88
2023-04-26T02:47:40.345Z,0.82
2023-04-26T02:48:40.359Z,0.76
2023-04-26T02:49:40.369Z,0.75
2023-04-26T02:50:40.302Z,0.68
2023-04-26T02:51:40.314Z,0.68
2023-04-26T02:52:40.292Z,0.70
2023-04-26T02:53:40.271Z,0.67
2023-04-26T02:54:40.356Z,0.65
2023-04-26T02:55:40.271Z,0.64
2023-04-26T02:56:40.250Z,0.64
2023-04-26T02:57:40.285Z,0.62
2023-04-26T02:58:40.282Z,0.60
2023-04-26T02:59:40.325Z,0.65
2023-04-26T03:00:40.258Z,0.58
2023-04-26T03:01:40.251Z,0.53
2023-04-26T03:02:40.333Z,0.46
2023-04-26T03:03:40.244Z,0.45
2023-04-26T03:04:40.262Z,0.41
2023-04-26T03:05:40.174Z,0.41
2023-04-26T03:06:40.133Z,0.38
2023-04-26T03:07:40.149Z,0.38
2023-04-26T03:08:40.131Z,0.31
2023-04-26T03:09:40.188Z,0.31
2023-04-26T03:10:40.144Z,0.25
2023-04-26T03:11:40.120Z,0.23
2023-04-26T03:12:40.122Z,0.21
2023-04-26T03:13:40.105Z,0.16
2023-04-26T03:14:40.137Z,0.12
2023-04-26T03:15:40.079Z,0.10
2023-04-26T03:16:40.148Z,0.07
2023-04-26T03:17:40.083Z,0.05
2023-04-26T03:18:40.056Z,0.12
2023-04-26T03:19:40.065Z,0.12
2023-04-26T03:20:40.039Z,0.16
2023-04-26T03:21:40.007Z,0.15
2023-04-26T03:22:39.989Z,0.13
2023-04-26T03:23:39.975Z,0.12
2023-04-26T03:24:40.019Z,0.07
2023-04-26T03:25:39.981Z,0.09
2023-04-26T03:26:39.911Z,0.10
2023-04-26T03:27:39.981Z,0.23
2023-04-26T03:28:39.946Z,0.27
2023-04-26T03:29:40.628Z,0.27
2023-04-26T03:30:39.910Z,0.27
2023-04-26T03:31:39.901Z,0.24
2023-04-26T03:32:39.873Z,0.27
2023-04-26T03:33:39.866Z,0.24
2023-04-26T03:34:39.882Z,0.28
2023-04-26T03:35:39.852Z,0.27
2023-04-26T03:36:39.866Z,0.25
2023-04-26T03:37:39.841Z,0.23
2023-04-26T03:38:39.809Z,0.24
2023-04-26T03:39:39.830Z,0.24
2023-04-26T03:40:39.786Z,0.25
2023-04-26T03:41:39.791Z,0.23
2023-04-26T03:42:39.733Z,0.23
2023-04-26T03:43:39.753Z,0.21
2023-04-26T03:44:39.749Z,0.20
2023-04-26T03:45:39.829Z,0.18
2023-04-26T03:46:39.706Z,0.16
2023-04-26T03:47:39.756Z,0.18
2023-04-26T03:48:39.696Z,0.33
2023-04-26T03:49:39.706Z,0.39
2023-04-26T03:50:39.681Z,0.41
2023-04-26T03:51:39.659Z,0.45
2023-04-26T03:52:39.658Z,0.41
2023-04-26T03:53:39.636Z,0.39
2023-04-26T03:54:39.642Z,0.45
2023-04-26T03:55:39.652Z,0.45
2023-04-26T03:56:39.622Z,0.46
2023-04-26T03:57:39.611Z,0.42
2023-04-26T03:58:39.630Z,0.43
2023-04-26T03:59:39.614Z,0.42
2023-04-26T04:00:39.576Z,0.34
2023-04-26T04:01:39.603Z,0.33
2023-04-26T04:02:39.632Z,0.33
2023-04-26T04:03:41.252Z,0.25
2023-04-26T04:04:39.806Z,0.24
2023-04-26T04:05:39.667Z,0.18
2023-04-26T04:06:39.519Z,0.15
2023-04-26T04:07:39.499Z,0.13
2023-04-26T04:08:39.490Z,0.12
2023-04-26T04:09:39.466Z,0.12
2023-04-26T04:10:39.513Z,0.15
2023-04-26T04:11:39.446Z,0.24
2023-04-26T04:12:39.451Z,0.33
2023-04-26T04:13:39.455Z,0.34
2023-04-26T04:14:39.417Z,0.46
2023-04-26T04:15:39.501Z,0.49
2023-04-26T04:16:39.399Z,0.46
2023-04-26T04:17:39.443Z,0.45
2023-04-26T04:18:39.679Z,0.43
2023-04-26T04:19:39.446Z,0.49
2023-04-26T04:20:39.435Z,0.52
2023-04-26T04:21:39.376Z,0.64
2023-04-26T04:22:39.398Z,0.68
2023-04-26T04:23:39.351Z,0.68
2023-04-26T04:24:39.372Z,0.70
2023-04-26T04:25:39.414Z,0.70
2023-04-26T04:26:39.320Z,0.68
2023-04-26T04:27:39.296Z,0.72
2023-04-26T04:28:39.326Z,0.79
2023-04-26T04:29:39.317Z,0.79
2023-04-26T04:30:39.300Z,0.80
2023-04-26T04:31:39.348Z,0.85
2023-04-26T04:32:39.328Z,0.86
2023-04-26T04:33:39.244Z,0.86
2023-04-26T04:34:39.239Z,0.96
2023-04-26T04:35:39.309Z,1.03
2023-04-26T04:36:39.211Z,1.06
2023-04-26T04:37:39.211Z,1.12
2023-04-26T04:38:39.192Z,1.12
2023-04-26T04:39:39.201Z,1.14
2023-04-26T04:40:39.193Z,1.26
2023-04-26T04:41:39.181Z,1.34
2023-04-26T04:42:39.149Z,1.40
2023-04-26T04:43:39.241Z,1.54
2023-04-26T04:44:39.122Z,1.80
2023-04-26T04:45:39.213Z,1.98
2023-04-26T04:46:39.142Z,1.99
2023-04-26T04:47:39.487Z,2.01
2023-04-26T04:48:39.151Z,1.98
2023-04-26T04:49:39.094Z,1.93
2023-04-26T04:50:39.149Z,1.91
2023-04-26T04:51:39.086Z,1.90
2023-04-26T04:52:39.044Z,1.97
2023-04-26T04:53:39.028Z,1.99
2023-04-26T04:54:39.102Z,2.04
2023-04-26T04:55:39.073Z,2.04
2023-04-26T04:56:39.031Z,2.06
2023-04-26T04:57:40.707Z,2.09
2023-04-26T04:58:39.093Z,2.13
2023-04-26T04:59:39.019Z,2.17
2023-04-26T05:00:39.118Z,2.17
2023-04-26T05:01:39.130Z,2.17
2023-04-26T05:02:39.304Z,2.23
2023-04-26T05:03:39.576Z,2.28
2023-04-26T05:04:39.157Z,2.33
2023-04-26T05:05:39.058Z,2.46
2023-04-26T05:06:38.912Z,2.67
2023-04-26T05:07:39.017Z,2.97
2023-04-26T05:08:38.903Z,3.34
2023-04-26T05:09:38.866Z,3.75
2023-04-26T05:10:38.942Z,4.03
2023-04-26T05:11:38.972Z,4.22
2023-04-26T05:12:38.863Z,4.33
2023-04-26T05:13:38.867Z,4.43
2023-04-26T05:14:40.199Z,4.39
2023-04-26T05:15:39.141Z,4.42
2023-04-26T05:16:39.084Z,4.51
2023-04-26T05:17:38.890Z,4.64
2023-04-26T05:18:38.821Z,4.65
2023-04-26T05:19:38.783Z,4.84
2023-04-26T05:20:38.793Z,5.07
2023-04-26T05:21:38.820Z,5.12
2023-04-26T05:22:38.795Z,5.10
2023-04-26T05:23:38.754Z,5.01
2023-04-26T05:24:38.846Z,5.01
2023-04-26T05:25:38.763Z,4.89
2023-04-26T05:26:38.753Z,4.79
2023-04-26T05:27:47.931Z,4.86
2023-04-26T05:28:38.742Z,4.89
2023-04-26T05:29:38.673Z,4.95
2023-04-26T05:30:38.703Z,5.02
2023-04-26T05:31:38.741Z,5.09
2023-04-26T05:32:38.697Z,5.05
2023-04-26T05:33:38.618Z,4.98
2023-04-26T05:34:38.851Z,5.05
2023-04-26T05:35:38.644Z,5.01
2023-04-26T05:36:38.593Z,5.22
2023-04-26T05:37:38.564Z,5.40
2023-04-26T05:38:38.573Z,5.57
2023-04-26T05:39:38.559Z,5.63
2023-04-26T05:40:47.082Z,5.85
2023-04-26T05:41:38.554Z,6.01
2023-04-26T05:42:38.565Z,6.16
2023-04-26T05:43:38.511Z,6.03
2023-04-26T05:44:38.525Z,6.06
2023-04-26T05:45:38.511Z,6.22
2023-04-26T05:46:38.515Z,6.58
2023-04-26T05:47:38.496Z,6.87
2023-04-26T05:48:38.464Z,6.94
2023-04-26T05:49:38.444Z,7.24
2023-04-26T05:50:40.080Z,7.67
2023-04-26T05:51:38.464Z,7.97
2023-04-26T05:52:38.417Z,8.25
2023-04-26T05:53:38.406Z,8.53
2023-04-26T05:54:38.400Z,8.79
2023-04-26T05:55:38.393Z,9.02
2023-04-26T05:56:38.414Z,9.23
2023-04-26T05:57:38.388Z,8.96
2023-04-26T05:58:38.375Z,9.28
2023-04-26T05:59:38.363Z,9.76
2023-04-26T06:00:38.330Z,10.25
2023-04-26T06:01:38.409Z,10.73
2023-04-26T06:02:38.500Z,11.17
2023-04-26T06:03:38.529Z,11.35
2023-04-26T06:04:38.589Z,11.67
2023-04-26T06:05:38.451Z,11.70
2023-04-26T06:06:38.328Z,11.49
2023-04-26T06:07:38.255Z,11.70
2023-04-26T06:08:38.241Z,11.77
2023-04-26T06:09:38.230Z,11.56
2023-04-26T06:10:38.235Z,11.54
2023-04-26T06:11:38.240Z,11.97
2023-04-26T06:12:38.225Z,11.78
2023-04-26T06:13:38.202Z,11.68
2023-04-26T06:14:38.176Z,12.06
2023-04-26T06:15:38.196Z,12.60
2023-04-26T06:16:38.242Z,12.02
2023-04-26T06:17:38.208Z,12.19
2023-04-26T06:18:38.144Z,12.15
2023-04-26T06:19:38.134Z,12.51
2023-04-26T06:20:38.130Z,12.85
2023-04-26T06:21:38.132Z,13.33
2023-04-26T06:22:38.097Z,13.07
2023-04-26T06:23:38.092Z,13.20
2023-04-26T06:24:38.077Z,13.24
2023-04-26T06:25:38.086Z,13.41
2023-04-26T06:26:38.075Z,13.43
2023-04-26T06:27:38.053Z,13.22
2023-04-26T06:28:38.813Z,13.46
2023-04-26T06:29:38.033Z,13.07
2023-04-26T06:30:38.035Z,12.99
2023-04-26T06:31:38.144Z,13.47
2023-04-26T06:32:38.049Z,13.46
2023-04-26T06:33:38.012Z,13.71
2023-04-26T06:34:37.996Z,14.07
2023-04-26T06:35:37.970Z,14.04
2023-04-26T06:36:38.062Z,14.20
2023-04-26T06:37:37.937Z,14.46
2023-04-26T06:38:37.949Z,14.57
2023-04-26T06:39:37.961Z,15.03
2023-04-26T06:40:37.924Z,15.08
2023-04-26T06:41:37.959Z,15.26
2023-04-26T06:42:37.894Z,15.49
2023-04-26T06:43:37.886Z,15.76
2023-04-26T06:44:37.881Z,16.00
2023-04-26T06:45:37.869Z,16.11
2023-04-26T06:46:37.888Z,15.01
2023-04-26T06:47:37.885Z,14.86
2023-04-26T06:48:37.837Z,14.49
2023-04-26T06:49:37.807Z,14.19
2023-04-26T06:50:37.800Z,14.42
2023-04-26T06:51:37.879Z,14.38
2023-04-26T06:52:37.963Z,14.65
2023-04-26T06:53:37.782Z,15.15
2023-04-26T06:54:42.892Z,15.70
2023-04-26T06:55:37.745Z,15.84
2023-04-26T06:56:37.764Z,14.81
2023-04-26T06:57:37.740Z,14.71
2023-04-26T06:58:37.723Z,15.19
2023-04-26T06:59:37.703Z,15.57
2023-04-26T07:00:38.000Z,15.27
2023-04-26T07:01:37.717Z,14.65
2023-04-26T07:02:37.865Z,14.14
2023-04-26T07:03:37.855Z,13.41
2023-04-26T07:04:37.954Z,13.06
2023-04-26T07:05:37.641Z,12.95
2023-04-26T07:06:37.689Z,12.59
2023-04-26T07:07:37.647Z,11.83
2023-04-26T07:08:37.618Z,11.39
2023-04-26T07:09:37.603Z,11.83
2023-04-26T07:10:38.161Z,12.52
2023-04-26T07:11:37.607Z,12.93
2023-04-26T07:12:37.579Z,13.24
2023-04-26T07:13:38.587Z,13.59
2023-04-26T07:14:39.335Z,13.07
2023-04-26T07:15:37.534Z,12.51
2023-04-26T07:16:37.596Z,11.61
2023-04-26T07:17:37.526Z,11.38
2023-04-26T07:18:37.514Z,11.41
2023-04-26T07:19:37.518Z,11.57
2023-04-26T07:20:37.490Z,11.82
2023-04-26T07:21:37.507Z,11.80
2023-04-26T07:22:37.470Z,11.14
2023-04-26T07:23:37.452Z,11.10
2023-04-26T07:24:37.447Z,11.09
2023-04-26T07:25:37.424Z,10.84
2023-04-26T07:26:37.449Z,10.98
2023-04-26T07:27:37.405Z,10.71
2023-04-26T07:28:37.399Z,10.60
2023-04-26T07:29:37.376Z,10.36
2023-04-26T07:30:37.381Z,10.21
2023-04-26T07:31:37.385Z,10.37
2023-04-26T07:32:37.425Z,10.30
2023-04-26T07:33:37.478Z,10.15
2023-04-26T07:34:37.329Z,10.06
2023-04-26T07:35:37.323Z,9.94
2023-04-26T07:36:37.339Z,10.39
2023-04-26T07:37:37.299Z,11.03
2023-04-26T07:38:37.288Z,11.35
2023-04-26T07:39:37.293Z,11.38
2023-04-26T07:40:37.290Z,11.67
2023-04-26T07:41:37.282Z,12.06
2023-04-26T07:42:37.242Z,12.52
2023-04-26T07:43:37.231Z,12.63
2023-04-26T07:44:37.227Z,12.92
2023-04-26T07:45:37.250Z,13.33
2023-04-26T07:46:37.231Z,13.96
2023-04-26T07:47:37.305Z,14.24
2023-04-26T07:48:37.190Z,14.12
2023-04-26T07:49:37.173Z,14.20
2023-04-26T07:50:37.163Z,14.57
2023-04-26T07:51:37.193Z,14.64
2023-04-26T07:52:37.141Z,14.74
2023-04-26T07:53:37.147Z,15.15
2023-04-26T07:54:37.125Z,15.42
2023-04-26T07:55:37.106Z,15.81
2023-04-26T07:56:37.126Z,15.96
2023-04-26T07:57:37.085Z,16.40
2023-04-26T07:58:37.080Z,16.65
2023-04-26T07:59:37.084Z,16.22
2023-04-26T08:00:37.058Z,16.22
2023-04-26T08:01:37.238Z,16.27
2023-04-26T08:02:44.711Z,16.62
2023-04-26T08:03:37.272Z,16.48
2023-04-26T08:04:37.163Z,17.08
2023-04-26T08:05:37.390Z,16.83
2023-04-26T08:06:37.051Z,16.80
2023-04-26T08:07:36.977Z,15.67
2023-04-26T08:08:36.973Z,14.74
2023-04-26T08:09:36.964Z,15.05
2023-04-26T08:10:36.953Z,15.52
2023-04-26T08:11:37.009Z,15.66
2023-04-26T08:12:36.924Z,16.30
2023-04-26T08:13:36.938Z,16.49
2023-04-26T08:14:36.910Z,16.38
2023-04-26T08:15:36.892Z,16.14
2023-04-26T08:16:36.956Z,16.58
2023-04-26T08:17:36.890Z,16.88
2023-04-26T08:18:36.866Z,16.65
2023-04-26T08:19:36.856Z,16.56
2023-04-26T08:20:36.843Z,17.25
2023-04-26T08:21:36.828Z,17.46
2023-04-26T08:22:36.869Z,15.84
2023-04-26T08:23:36.804Z,15.23
2023-04-26T08:24:36.811Z,15.08
2023-04-26T08:25:36.792Z,15.28
2023-04-26T08:26:36.778Z,16.70
2023-04-26T08:27:36.811Z,16.23
2023-04-26T08:28:36.766Z,16.14
2023-04-26T08:29:36.763Z,15.92
2023-04-26T08:30:36.821Z,15.89
2023-04-26T08:31:36.908Z,16.42
2023-04-26T08:32:36.779Z,16.95
2023-04-26T08:33:36.708Z,16.81
2023-04-26T08:34:36.699Z,16.40
2023-04-26T08:35:36.687Z,15.33
2023-04-26T08:36:36.712Z,14.69
2023-04-26T08:37:36.667Z,15.12
2023-04-26T08:38:36.660Z,15.60
2023-04-26T08:39:36.650Z,15.61
2023-04-26T08:40:36.634Z,16.73
2023-04-26T08:41:36.650Z,16.92
2023-04-26T08:42:37.924Z,17.20
2023-04-26T08:43:36.605Z,16.81
2023-04-26T08:44:36.604Z,16.14
2023-04-26T08:45:36.594Z,15.63
2023-04-26T08:46:36.661Z,15.96
2023-04-26T08:47:36.640Z,15.56
2023-04-26T08:48:36.559Z,15.08
2023-04-26T08:49:36.551Z,15.60
2023-04-26T08:50:36.542Z,16.11
2023-04-26T08:51:36.530Z,15.67
2023-04-26T08:52:36.560Z,16.06
2023-04-26T08:53:36.507Z,15.94
2023-04-26T08:54:36.527Z,15.97
2023-04-26T08:55:36.502Z,16.45
2023-04-26T08:56:36.483Z,16.59
2023-04-26T08:57:36.530Z,16.70
2023-04-26T08:58:36.470Z,17.67
2023-04-26T08:59:36.454Z,17.94
2023-04-26T09:00:36.451Z,17.94
2023-04-26T09:01:36.484Z,16.73
2023-04-26T09:02:36.569Z,16.85
2023-04-26T09:03:36.548Z,17.63
2023-04-26T09:04:36.674Z,18.07
2023-04-26T09:05:36.435Z,17.57
2023-04-26T09:06:36.384Z,17.29
2023-04-26T09:07:36.447Z,16.99
2023-04-26T09:08:36.359Z,17.54
2023-04-26T09:09:36.375Z,16.88
2023-04-26T09:10:36.332Z,17.32
2023-04-26T09:11:36.325Z,17.91
2023-04-26T09:12:36.346Z,18.90
2023-04-26T09:13:36.320Z,18.91
2023-04-26T09:14:36.300Z,18.98
2023-04-26T09:15:36.315Z,19.79
2023-04-26T09:16:36.307Z,20.08
2023-04-26T09:17:36.322Z,20.21
2023-04-26T09:18:36.257Z,20.59
2023-04-26T09:19:36.254Z,20.02
2023-04-26T09:20:36.247Z,20.35
2023-04-26T09:21:36.232Z,20.93
2023-04-26T09:22:36.256Z,21.36
2023-04-26T09:23:36.212Z,19.57
2023-04-26T09:24:36.190Z,17.97
2023-04-26T09:25:36.186Z,17.47
2023-04-26T09:26:36.171Z,17.13
2023-04-26T09:27:36.228Z,16.20
2023-04-26T09:28:36.160Z,15.38
2023-04-26T09:29:36.144Z,15.08
2023-04-26T09:30:36.129Z,15.30
2023-04-26T09:31:36.210Z,16.20
2023-04-26T09:32:36.144Z,16.90
2023-04-26T09:33:36.104Z,17.63
2023-04-26T09:34:36.099Z,16.93
2023-04-26T09:35:36.081Z,15.82
2023-04-26T09:36:36.067Z,14.52
2023-04-26T09:37:39.069Z,14.02
2023-04-26T09:38:36.043Z,13.95
2023-04-26T09:39:36.037Z,13.84
2023-04-26T09:40:36.030Z,14.52
2023-04-26T09:41:36.023Z,13.07
2023-04-26T09:42:36.037Z,12.63
2023-04-26T09:43:36.005Z,12.20
2023-04-26T09:44:35.985Z,12.13
2023-04-26T09:45:35.992Z,11.99
2023-04-26T09:46:36.026Z,11.86
2023-04-26T09:47:36.009Z,11.50
2023-04-26T09:48:35.978Z,11.17
2023-04-26T09:49:35.939Z,10.96
2023-04-26T09:50:35.918Z,10.83
2023-04-26T09:51:35.921Z,10.66
2023-04-26T09:52:35.904Z,10.53
2023-04-26T09:53:35.917Z,10.25
2023-04-26T09:54:35.876Z,9.86
2023-04-26T09:55:36.150Z,9.88
2023-04-26T09:56:35.847Z,10.00
2023-04-26T09:57:35.868Z,10.04
2023-04-26T09:58:35.844Z,9.86
2023-04-26T09:59:35.831Z,9.91
2023-04-26T10:00:35.815Z,10.14
2023-04-26T10:01:35.905Z,10.96
2023-04-26T10:02:35.898Z,12.12
2023-04-26T10:03:35.887Z,12.26
2023-04-26T10:04:35.819Z,12.23
2023-04-26T10:05:35.770Z,11.97
2023-04-26T10:06:35.750Z,11.77
2023-04-26T10:07:35.825Z,11.70
2023-04-26T10:08:35.725Z,11.56
2023-04-26T10:09:35.724Z,11.35
2023-04-26T10:10:35.714Z,11.25
2023-04-26T10:11:35.698Z,11.02
2023-04-26T10:12:35.742Z,10.89
2023-04-26T10:13:35.727Z,10.84
2023-04-26T10:14:35.683Z,10.92
2023-04-26T10:15:35.654Z,10.84
2023-04-26T10:16:35.718Z,10.94
2023-04-26T10:17:35.687Z,11.02
2023-04-26T10:18:35.685Z,11.20
2023-04-26T10:19:35.624Z,11.14
2023-04-26T10:20:35.606Z,11.03
2023-04-26T10:21:35.600Z,10.98
2023-04-26T10:22:35.654Z,10.94
2023-04-26T10:23:35.585Z,10.88
2023-04-26T10:24:35.566Z,10.74
2023-04-26T10:25:35.555Z,10.73
2023-04-26T10:26:35.539Z,10.58
2023-04-26T10:27:35.529Z,10.34
2023-04-26T10:28:35.562Z,10.14
2023-04-26T10:29:35.517Z,10.06
2023-04-26T10:30:35.486Z,9.97
2023-04-26T10:31:35.564Z,9.89
2023-04-26T10:32:35.500Z,9.82
2023-04-26T10:33:35.493Z,9.70
2023-04-26T10:34:35.454Z,9.46
2023-04-26T10:35:35.459Z,9.34
2023-04-26T10:36:35.423Z,9.06
2023-04-26T10:37:35.433Z,8.94
2023-04-26T10:38:35.459Z,8.87
2023-04-26T10:39:35.404Z,8.62
2023-04-26T10:40:35.400Z,8.53
2023-04-26T10:41:35.387Z,8.50
2023-04-26T10:42:35.362Z,8.55
2023-04-26T10:43:35.402Z,8.40
2023-04-26T10:44:35.352Z,8.25
2023-04-26T10:45:35.377Z,8.04
2023-04-26T10:46:35.407Z,7.97
2023-04-26T10:47:35.345Z,7.85
2023-04-26T10:48:35.356Z,7.72
2023-04-26T10:49:35.295Z,7.71
2023-04-26T10:50:35.285Z,7.75
2023-04-26T10:51:35.278Z,7.87
2023-04-26T10:52:35.277Z,8.00
2023-04-26T10:53:35.328Z,8.17
2023-04-26T10:54:35.292Z,8.33
2023-04-26T10:55:35.238Z,8.35
2023-04-26T10:56:35.235Z,8.39
2023-04-26T10:57:35.222Z,8.33
2023-04-26T10:58:35.273Z,8.20
2023-04-26T10:59:47.196Z,8.35
2023-04-26T11:00:35.195Z,8.54
2023-04-26T11:01:35.258Z,8.75
2023-04-26T11:02:35.267Z,8.93
2023-04-26T11:03:35.508Z,9.01
2023-04-26T11:04:35.148Z,9.01
2023-04-26T11:05:35.159Z,9.06
2023-04-26T11:06:35.111Z,9.10
2023-04-26T11:07:35.107Z,9.15
2023-04-26T11:08:35.133Z,9.12
2023-04-26T11:09:35.126Z,9.10
2023-04-26T11:10:36.689Z,8.99
2023-04-26T11:11:35.079Z,9.01
2023-04-26T11:12:35.044Z,8.99
2023-04-26T11:13:35.041Z,8.96
2023-04-26T11:14:35.110Z,8.90
2023-04-26T11:15:35.048Z,8.97
2023-04-26T11:16:35.144Z,9.04
2023-04-26T11:17:35.011Z,8.84
2023-04-26T11:18:35.018Z,8.79
2023-04-26T11:19:34.985Z,8.79
2023-04-26T11:20:34.968Z,8.73
2023-04-26T11:21:34.952Z,8.75
2023-04-26T11:22:34.957Z,8.94
2023-04-26T11:23:34.992Z,9.13
2023-04-26T11:24:34.924Z,9.42
2023-04-26T11:25:34.914Z,9.39
2023-04-26T11:26:34.911Z,9.45
2023-04-26T11:27:34.887Z,9.68
2023-04-26T11:28:34.905Z,9.81
2023-04-26T11:29:34.886Z,9.70
2023-04-26T11:30:34.876Z,9.58
2023-04-26T11:31:34.902Z,9.66
2023-04-26T11:32:34.885Z,9.88
2023-04-26T11:33:34.874Z,10.06
2023-04-26T11:34:34.822Z,9.99
2023-04-26T11:35:34.820Z,9.96
2023-04-26T11:36:34.797Z,10.04
2023-04-26T11:37:34.800Z,10.26
2023-04-26T11:38:34.826Z,10.40
2023-04-26T11:39:34.767Z,10.55
2023-04-26T11:40:34.750Z,10.80
2023-04-26T11:41:34.745Z,10.81
2023-04-26T11:42:34.738Z,10.77
2023-04-26T11:43:34.798Z,10.47
2023-04-26T11:44:34.733Z,10.28
2023-04-26T11:45:34.701Z,10.04
2023-04-26T11:46:34.707Z,10.04
2023-04-26T11:47:34.746Z,9.99
2023-04-26T11:48:34.715Z,10.10
2023-04-26T11:49:34.658Z,9.97
2023-04-26T11:50:34.666Z,10.07
2023-04-26T11:51:34.636Z,10.17
2023-04-26T11:52:34.615Z,10.25
2023-04-26T11:53:34.662Z,10.24
2023-04-26T11:54:34.610Z,10.32
2023-04-26T11:55:34.601Z,10.46
2023-04-26T11:56:34.588Z,10.37
2023-04-26T11:57:34.604Z,10.22
2023-04-26T11:58:34.592Z,10.32
2023-04-26T11:59:34.562Z,10.42
2023-04-26T12:00:34.534Z,10.37
2023-04-26T12:01:34.526Z,10.47
2023-04-26T12:02:34.607Z,10.58
2023-04-26T12:03:34.620Z,10.66
2023-04-26T12:04:34.710Z,10.86
2023-04-26T12:05:34.598Z,11.10
2023-04-26T12:06:34.472Z,11.14
2023-04-26T12:07:34.471Z,11.27
2023-04-26T12:08:34.501Z,11.49
2023-04-26T12:09:34.448Z,11.68
2023-04-26T12:10:34.428Z,11.71
2023-04-26T12:11:34.445Z,11.68
2023-04-26T12:12:34.418Z,11.75
2023-04-26T12:13:34.449Z,11.24
2023-04-26T12:14:34.412Z,10.55
2023-04-26T12:15:34.377Z,10.10
2023-04-26T12:16:43.218Z,10.17
2023-04-26T12:17:35.819Z,10.28
2023-04-26T12:18:40.533Z,10.24
2023-04-26T12:19:34.695Z,10.36
2023-04-26T12:20:35.794Z,10.36
2023-04-26T12:21:34.400Z,10.33
2023-04-26T12:22:44.900Z,10.17
2023-04-26T12:23:34.359Z,10.10
2023-04-26T12:24:34.679Z,10.18
2023-04-26T12:25:43.325Z,10.07
2023-04-26T12:26:34.692Z,9.82
2023-04-26T12:27:34.805Z,9.70
2023-04-26T12:28:36.516Z,9.58
2023-04-26T12:29:34.285Z,9.35
2023-04-26T12:30:34.255Z,9.20
2023-04-26T12:31:34.779Z,9.02
2023-04-26T12:32:34.500Z,8.99
2023-04-26T12:33:34.796Z,9.04
2023-04-26T12:34:38.206Z,9.18
2023-04-26T12:35:36.772Z,9.35
2023-04-26T12:36:43.943Z,9.45
2023-04-26T12:37:35.145Z,9.46
2023-04-26T12:38:34.214Z,9.50
2023-04-26T12:39:39.121Z,9.49
2023-04-26T12:40:34.354Z,9.49
2023-04-26T12:41:34.242Z,9.48
2023-04-26T12:42:34.481Z,9.39
2023-04-26T12:43:34.498Z,9.40
2023-04-26T12:44:34.324Z,9.45
2023-04-26T12:45:34.246Z,9.56
2023-04-26T12:46:34.437Z,9.49
2023-04-26T12:47:34.460Z,9.49
2023-04-26T12:48:36.351Z,9.50
2023-04-26T12:49:34.113Z,9.53
2023-04-26T12:50:34.135Z,9.53
2023-04-26T12:52:48.722Z,9.56
2023-04-26T12:53:48.132Z,9.57
2023-04-26T12:54:46.852Z,9.66
2023-04-26T12:55:46.843Z,9.78
2023-04-26T12:56:47.004Z,9.88
2023-04-26T12:57:47.017Z,9.91
2023-04-26T12:58:46.829Z,10.04
2023-04-26T12:59:46.841Z,10.17
2023-04-26T13:00:46.804Z,10.22
2023-04-26T13:01:46.804Z,10.36
2023-04-26T13:02:46.953Z,10.56
2023-04-26T13:03:47.038Z,10.53
2023-04-26T13:04:46.949Z,10.55
2023-04-26T13:05:46.733Z,10.37
2023-04-26T13:06:46.753Z,10.17
2023-04-26T13:07:46.705Z,10.18
2023-04-26T13:08:46.761Z,10.28